Time;durP1;ratioP1;P1;durP2;ratioP2;P2;SDS_P1;SDS_P2;PMS_P1;PMS_P2;Temp;Humidity;BMP_temperature;BMP_pressure;BME280_temperature;BME280_humidity;BME280_pressure;Samples;Min_cycle;Max_cycle;Signal;HPM_P1;HPM_P2
2021/03/22 00:00:24;;;;;;;;;;;;;;;3.41;44.30;100299.53;5042152;28;19917;-82
2021/03/22 00:03:09;;;;;;;;;;;;;;;3.53;43.16;100288.47;5038992;28;20389;-82
2021/03/22 00:05:54;;;;;;;;;;;;;;;3.34;44.96;100300.94;5043083;28;19917;-82
2021/03/22 00:08:40;;;;;;;;;;;;;;;2.61;47.12;100297.22;5032294;28;20301;-82
2021/03/22 00:11:26;;;;;;;;;;;;;;;2.62;47.71;100290.75;5042754;28;19917;-81
2021/03/22 00:14:11;;;;;;;;;;;;;;;3.11;45.19;100286.28;5017880;28;19921;-81
2021/03/22 00:16:55;;;;;;;;;;;;;;;2.86;44.94;100278.31;5039985;28;19917;-81
2021/03/22 00:19:39;;;;;;;;;;;;;;;2.79;45.76;100288.56;5036989;28;19917;-81
2021/03/22 00:22:24;;;;;;;;;;;;;;;2.37;46.11;100288.94;5035444;28;19917;-81
2021/03/22 00:25:09;;;;;;;;;;;;;;;2.17;46.60;100287.09;5015124;28;19917;-81
2021/03/22 00:27:53;;;;;;;;;;;;;;;2.08;47.01;100299.47;5022636;28;19917;-82
2021/03/22 00:30:41;;;;;;;;;;;;;;;2.03;47.46;100296.78;5041595;28;19917;-83
2021/03/22 00:33:25;;;;;;;;;;;;;;;2.13;47.11;100292.19;5033971;28;20382;-83
2021/03/22 00:36:10;;;;;;;;;;;;;;;2.37;46.73;100308.53;5038792;28;19917;-82
2021/03/22 00:38:54;;;;;;;;;;;;;;;2.34;48.22;100308.25;5022785;28;19917;-83
2021/03/22 00:41:40;;;;;;;;;;;;;;;2.32;48.07;100297.00;5016508;28;19917;-83
2021/03/22 00:44:24;;;;;;;;;;;;;;;2.12;48.55;100295.16;5034927;28;20402;-83
2021/03/22 00:47:09;;;;;;;;;;;;;;;2.10;50.77;100292.75;5036984;28;19921;-82
2021/03/22 00:49:54;;;;;;;;;;;;;;;2.47;48.81;100295.09;5034681;28;19917;-84
2021/03/22 00:52:39;;;;;;;;;;;;;;;2.37;47.85;100287.06;5025791;28;20427;-83
2021/03/22 00:55:23;;;;;;;;;;;;;;;2.46;47.71;100282.75;5021657;28;20316;-81
2021/03/22 00:58:08;;;;;;;;;;;;;;;2.23;47.83;100285.22;5040448;28;19925;-82
2021/03/22 01:00:55;;;;;;;;;;;;;;;2.42;47.31;100287.06;5039937;28;19917;-83
2021/03/22 01:03:39;;;;;;;;;;;;;;;2.81;46.25;100281.84;5021515;28;19917;-81
2021/03/22 01:06:24;;;;;;;;;;;;;;;2.20;47.46;100288.44;5039295;28;20304;-82
2021/03/22 01:09:09;;;;;;;;;;;;;;;2.28;47.29;100286.03;5017349;28;19921;-82
2021/03/22 01:11:54;;;;;;;;;;;;;;;1.96;48.16;100286.31;5020078;28;19918;-81
2021/03/22 01:14:38;;;;;;;;;;;;;;;2.07;49.50;100279.06;5032489;28;19921;-82
2021/03/22 01:17:23;;;;;;;;;;;;;;;2.12;50.10;100282.56;5039297;28;19925;-82
2021/03/22 01:20:09;;;;;;;;;;;;;;;2.34;48.68;100289.47;5036503;28;19917;-80
2021/03/22 01:22:54;;;;;;;;;;;;;;;2.32;49.52;100275.53;5034329;28;19925;-81
2021/03/22 01:25:38;;;;;;;;;;;;;;;2.03;50.88;100275.31;5038832;28;19965;-81
2021/03/22 01:28:23;;;;;;;;;;;;;;;2.08;51.24;100278.00;5036374;28;19917;-80
2021/03/22 01:31:09;;;;;;;;;;;;;;;2.16;51.12;100264.03;5034693;28;19917;-80
2021/03/22 01:33:54;;;;;;;;;;;;;;;2.46;50.57;100269.34;5032550;28;19980;-80
2021/03/22 01:36:38;;;;;;;;;;;;;;;2.49;50.03;100263.41;5039254;28;20385;-81
2021/03/22 01:39:26;;;;;;;;;;;;;;;2.43;50.31;100261.84;5034408;28;19917;-79
2021/03/22 01:42:16;;;;;;;;;;;;;;;2.15;52.58;100254.38;5033110;28;19917;-80
2021/03/22 01:45:03;;;;;;;;;;;;;;;1.73;52.61;100252.00;5038654;28;19917;-80
2021/03/22 01:47:48;;;;;;;;;;;;;;;1.75;52.17;100257.09;5035027;28;20467;-82
2021/03/22 01:50:32;;;;;;;;;;;;;;;2.12;51.62;100241.53;5018970;28;20397;-81
2021/03/22 01:53:17;;;;;;;;;;;;;;;2.14;52.11;100242.03;5036338;28;19917;-80
2021/03/22 01:56:27;;;;;;;;;;;;;;;1.95;52.97;100235.63;5038802;28;19916;-81
2021/03/22 01:59:13;;;;;;;;;;;;;;;2.02;54.81;100225.44;5038283;28;19921;-80
2021/03/22 02:02:02;;;;;;;;;;;;;;;1.57;52.64;100231.66;5023833;28;19917;-81
2021/03/22 02:04:47;;;;;;;;;;;;;;;1.68;53.93;100215.28;5033333;28;19917;-81
2021/03/22 02:07:32;;;;;;;;;;;;;;;1.61;52.74;100209.41;5038872;28;20328;-80
2021/03/22 02:10:16;;;;;;;;;;;;;;;1.77;51.62;100215.56;5039219;28;19917;-81
2021/03/22 02:13:02;;;;;;;;;;;;;;;1.88;51.90;100219.03;5036776;28;19917;-80
2021/03/22 02:15:48;;;;;;;;;;;;;;;2.31;51.55;100213.03;5039085;28;20309;-82
2021/03/22 02:18:33;;;;;;;;;;;;;;;2.39;51.66;100206.28;5035789;28;19917;-81
2021/03/22 02:21:21;;;;;;;;;;;;;;;2.43;51.36;100210.88;5067338;22;20182;-82
2021/03/22 02:24:21;;;;;;;;;;;;;;;2.84;49.24;100210.69;5047195;28;19925;-82
2021/03/22 02:27:23;;;;;;;;;;;;;;;2.15;52.31;100208.78;5044223;28;19916;-82
2021/03/22 02:30:24;;;;;;;;;;;;;;;1.90;58.76;100223.03;5060847;28;19921;-82
2021/03/22 02:33:27;;;;;;;;;;;;;;;2.05;57.70;100216.84;5058061;28;19916;-81
2021/03/22 02:36:12;;;;;;;;;;;;;;;2.17;54.05;100209.34;5060921;28;19916;-82
2021/03/22 02:38:58;;;;;;;;;;;;;;;2.23;54.34;100210.13;5058444;28;19920;-82
2021/03/22 02:41:43;;;;;;;;;;;;;;;2.43;53.45;100216.22;5057071;28;19921;-82
2021/03/22 02:44:30;;;;;;;;;;;;;;;2.42;52.77;100211.13;5062864;28;20379;-81
2021/03/22 02:47:24;;;;;;;;;;;;;;;2.43;54.49;100204.69;5058576;28;19944;-82
2021/03/22 02:50:13;;;;;;;;;;;;;;;2.60;55.13;100213.19;5037038;28;19921;-82
2021/03/22 02:52:58;;;;;;;;;;;;;;;2.71;51.49;100214.78;5052463;28;19917;-81
2021/03/22 02:55:52;;;;;;;;;;;;;;;2.40;52.39;100199.84;5058481;28;19920;-82
2021/03/22 02:58:43;;;;;;;;;;;;;;;2.31;52.91;100213.03;5055075;28;19917;-81
2021/03/22 03:01:31;;;;;;;;;;;;;;;2.47;54.24;100216.47;5059831;28;19916;-82
2021/03/22 03:04:16;;;;;;;;;;;;;;;2.48;52.45;100213.53;5038161;28;19917;-81
2021/03/22 03:07:03;;;;;;;;;;;;;;;2.50;52.07;100222.09;5039505;28;19925;-81
2021/03/22 03:09:48;;;;;;;;;;;;;;;2.64;50.33;100218.84;5040487;28;19917;-83
2021/03/22 03:12:33;;;;;;;;;;;;;;;2.42;53.65;100214.63;5053880;28;20403;-81
2021/03/22 03:15:20;;;;;;;;;;;;;;;2.35;52.33;100210.59;5036108;28;19917;-82
2021/03/22 03:18:05;;;;;;;;;;;;;;;2.21;54.87;100213.06;5045126;28;19916;-82
2021/03/22 03:20:50;;;;;;;;;;;;;;;2.50;54.38;100211.38;5058001;28;19916;-83
2021/03/22 03:23:35;;;;;;;;;;;;;;;1.90;52.11;100219.56;5054664;28;19917;-82
2021/03/22 03:26:20;;;;;;;;;;;;;;;2.13;53.80;100216.31;5058272;28;20397;-81
2021/03/22 03:29:05;;;;;;;;;;;;;;;2.24;53.24;100215.19;5057093;28;19917;-82
2021/03/22 03:31:49;;;;;;;;;;;;;;;2.42;53.01;100209.25;5052866;28;19916;-81
2021/03/22 03:34:34;;;;;;;;;;;;;;;2.41;51.54;100210.31;5059899;28;19916;-83
2021/03/22 03:37:19;;;;;;;;;;;;;;;2.36;52.53;100215.72;5055838;28;19921;-83
2021/03/22 03:40:10;;;;;;;;;;;;;;;2.11;54.15;100203.16;5052024;28;20007;-83
2021/03/22 03:42:56;;;;;;;;;;;;;;;2.19;54.14;100199.13;5056648;28;20382;-81
2021/03/22 03:45:42;;;;;;;;;;;;;;;2.21;53.23;100196.97;5057734;28;19917;-81
2021/03/22 03:48:27;;;;;;;;;;;;;;;2.33;52.64;100197.50;5055891;28;20310;-82
2021/03/22 03:51:11;;;;;;;;;;;;;;;2.34;52.92;100198.25;5061149;28;19916;-82
2021/03/22 03:53:55;;;;;;;;;;;;;;;1.69;55.35;100208.84;5059161;28;20382;-80
2021/03/22 03:56:40;;;;;;;;;;;;;;;1.17;57.09;100209.09;5057207;28;19917;-82
2021/03/22 03:59:25;;;;;;;;;;;;;;;1.08;57.43;100207.19;5060939;28;19917;-82
2021/03/22 04:02:09;;;;;;;;;;;;;;;1.17;57.81;100209.09;5061844;28;19920;-80
2021/03/22 04:04:54;;;;;;;;;;;;;;;1.19;58.89;100212.31;5057354;28;19917;-82
2021/03/22 04:07:39;;;;;;;;;;;;;;;1.54;57.98;100208.06;5062172;28;20486;-82
2021/03/22 04:10:23;;;;;;;;;;;;;;;1.63;58.21;100206.44;5060597;28;19921;-79
2021/03/22 04:13:08;;;;;;;;;;;;;;;1.42;54.00;100205.66;5056255;28;19925;-82
2021/03/22 04:15:54;;;;;;;;;;;;;;;1.38;54.32;100204.56;5059127;28;19920;-81
2021/03/22 04:18:39;;;;;;;;;;;;;;;1.21;57.17;100210.19;5052246;28;19917;-83
2021/03/22 04:21:26;;;;;;;;;;;;;;;1.47;54.65;100211.03;5054794;28;19917;-83
2021/03/22 04:24:11;;;;;;;;;;;;;;;1.77;53.04;100217.44;5059870;28;19916;-84
2021/03/22 04:26:57;;;;;;;;;;;;;;;1.94;52.20;100220.63;5057842;28;20302;-82
2021/03/22 04:29:42;;;;;;;;;;;;;;;1.77;53.16;100223.59;5056478;28;19917;-83
2021/03/22 04:32:26;;;;;;;;;;;;;;;1.96;55.18;100219.28;5054784;28;19920;-82
2021/03/22 04:35:11;;;;;;;;;;;;;;;1.84;54.31;100228.66;5056948;28;19921;-82
2021/03/22 04:37:56;;;;;;;;;;;;;;;1.54;53.22;100229.47;5056232;28;19917;-81
2021/03/22 04:40:41;;;;;;;;;;;;;;;1.80;54.51;100225.72;5054337;28;19917;-82
2021/03/22 04:43:25;;;;;;;;;;;;;;;1.99;51.85;100237.50;5059029;28;19917;-84
2021/03/22 04:46:10;;;;;;;;;;;;;;;1.79;52.65;100236.72;5056507;28;20294;-82
2021/03/22 04:48:55;;;;;;;;;;;;;;;1.92;54.63;100230.81;5053884;28;19921;-82
2021/03/22 04:51:40;;;;;;;;;;;;;;;2.02;54.40;100238.84;5048290;28;19917;-81
2021/03/22 04:54:24;;;;;;;;;;;;;;;1.89;53.97;100231.34;5056779;28;19916;-82
2021/03/22 04:57:28;;;;;;;;;;;;;;;1.69;54.10;100241.00;5054462;28;19917;-82
2021/03/22 05:00:17;;;;;;;;;;;;;;;1.50;56.16;100247.16;5057122;28;19917;-82
2021/03/22 05:03:02;;;;;;;;;;;;;;;1.34;55.12;100243.66;5052887;28;19917;-82
2021/03/22 05:05:47;;;;;;;;;;;;;;;1.42;55.14;100258.44;5052972;28;19920;-82
2021/03/22 05:08:32;;;;;;;;;;;;;;;1.54;56.62;100246.38;5057826;28;19921;-81
2021/03/22 05:11:18;;;;;;;;;;;;;;;1.32;55.10;100245.81;5055639;28;19917;-82
2021/03/22 05:14:03;;;;;;;;;;;;;;;1.25;55.38;100239.91;5034177;28;19917;-82
2021/03/22 05:16:48;;;;;;;;;;;;;;;1.80;53.60;100239.13;5049310;28;19917;-82
2021/03/22 05:19:33;;;;;;;;;;;;;;;1.82;53.55;100244.25;5035704;28;19917;-82
2021/03/22 05:22:17;;;;;;;;;;;;;;;1.37;58.98;100251.19;5038282;28;19918;-83
2021/03/22 05:25:03;;;;;;;;;;;;;;;1.60;57.40;100247.97;5057536;28;19917;-82
2021/03/22 05:27:48;;;;;;;;;;;;;;;1.86;56.64;100242.63;5055919;28;19920;-81
2021/03/22 05:30:34;;;;;;;;;;;;;;;1.97;55.29;100246.91;5053982;28;20390;-83
2021/03/22 05:33:20;;;;;;;;;;;;;;;2.13;53.78;100253.88;5048349;28;19944;-84
2021/03/22 05:36:05;;;;;;;;;;;;;;;2.25;52.90;100258.91;5050039;28;19921;-82
2021/03/22 05:38:49;;;;;;;;;;;;;;;2.19;51.70;100251.94;5034433;28;19917;-84
2021/03/22 05:41:36;;;;;;;;;;;;;;;2.07;55.56;100254.94;5038340;28;20299;-82
2021/03/22 05:44:45;;;;;;;;;;;;;;;2.55;54.86;100262.34;5053250;28;20525;-82
2021/03/22 05:47:49;;;;;;;;;;;;;;;3.63;52.09;100261.50;5052304;28;20306;-83
2021/03/22 05:50:38;;;;;;;;;;;;;;;5.65;46.72;100263.75;5056587;28;19917;-82
2021/03/22 05:53:28;;;;;;;;;;;;;;;6.36;43.06;100268.00;5054456;28;19917;-83
2021/03/22 05:56:22;;;;;;;;;;;;;;;5.14;45.39;100252.91;5061350;28;19917;-83
2021/03/22 05:59:16;;;;;;;;;;;;;;;5.19;45.70;100271.72;5060211;28;19917;-83
2021/03/22 06:02:02;;;;;;;;;;;;;;;5.51;44.11;100273.69;5060627;28;20299;-83
2021/03/22 06:04:51;;;;;;;;;;;;;;;4.79;46.02;100275.72;5053873;28;19917;-81
2021/03/22 06:07:39;;;;;;;;;;;;;;;4.19;47.37;100283.34;5060861;28;19921;-83
2021/03/22 06:10:24;;;;;;;;;;;;;;;4.11;46.32;100299.31;5061069;28;19936;-82
2021/03/22 06:13:09;;;;;;;;;;;;;;;4.37;45.12;100295.28;5070824;28;19921;-82
2021/03/22 06:15:58;;;;;;;;;;;;;;;4.61;45.65;100292.63;5059346;28;19916;-81
2021/03/22 06:18:57;;;;;;;;;;;;;;;3.93;49.50;100298.09;5050687;28;19921;-81
2021/03/22 06:21:44;;;;;;;;;;;;;;;3.93;48.64;100298.09;5055535;28;19916;-82
2021/03/22 06:24:29;;;;;;;;;;;;;;;4.12;47.81;100301.72;5062802;28;19916;-84
2021/03/22 06:27:14;;;;;;;;;;;;;;;4.44;47.42;100308.41;5063060;28;19921;-82
2021/03/22 06:29:58;;;;;;;;;;;;;;;4.74;46.80;100298.13;5048962;28;19917;-82
2021/03/22 06:32:45;;;;;;;;;;;;;;;5.00;46.61;100300.53;5047027;28;19995;-83
2021/03/22 06:35:31;;;;;;;;;;;;;;;5.60;45.54;100315.88;5059582;28;19924;-84
2021/03/22 06:38:16;;;;;;;;;;;;;;;5.90;44.90;100311.16;5060092;28;19917;-85
2021/03/22 06:41:20;;;;;;;;;;;;;;;6.13;44.65;100312.94;5058394;28;19916;-82
2021/03/22 06:44:07;;;;;;;;;;;;;;;6.06;42.90;100312.50;5060419;28;20374;-82
2021/03/22 06:47:01;;;;;;;;;;;;;;;6.70;41.78;100319.78;5059625;28;19917;-84
2021/03/22 06:49:47;;;;;;;;;;;;;;;7.45;39.88;100322.03;5059610;28;19920;-84
2021/03/22 06:52:36;;;;;;;;;;;;;;;7.16;39.73;100318.88;5062331;28;19917;-83
2021/03/22 06:55:24;;;;;;;;;;;;;;;7.34;39.45;100320.63;5059466;28;19924;-85
2021/03/22 06:58:30;;;;;;;;;;;;;;;6.95;41.29;100323.88;5058574;28;19921;-83
2021/03/22 07:01:29;;;;;;;;;;;;;;;7.65;39.31;100316.16;5069022;28;19921;-88
2021/03/22 07:04:28;;;;;;;;;;;;;;;8.67;37.26;100319.09;5068406;28;19917;-89
2021/03/22 07:07:15;;;;;;;;;;;;;;;8.19;37.71;100325.16;5067426;28;19921;-86
2021/03/22 07:10:01;;;;;;;;;;;;;;;8.83;37.49;100323.00;5063268;28;19917;-86
2021/03/22 07:12:47;;;;;;;;;;;;;;;8.85;36.80;100318.03;5060422;28;19917;-85
2021/03/22 07:15:34;;;;;;;;;;;;;;;9.77;35.56;100333.25;5060831;28;19917;-82
2021/03/22 07:18:26;;;;;;;;;;;;;;;10.20;34.89;100334.09;5060782;28;19917;-84
2021/03/22 07:21:10;;;;;;;;;;;;;;;11.08;33.43;100325.31;5057710;28;19917;-83
2021/03/22 07:23:58;;;;;;;;;;;;;;;12.34;30.96;100334.00;5062031;28;19920;-85
2021/03/22 07:26:43;;;;;;;;;;;;;;;13.80;28.71;100323.16;5059246;28;19917;-85
2021/03/22 07:29:47;;;;;;;;;;;;;;;13.80;28.42;100327.81;5086177;28;19921;-86
2021/03/22 07:32:35;;;;;;;;;;;;;;;14.76;27.41;100334.00;5056448;28;19917;-85
2021/03/22 07:35:27;;;;;;;;;;;;;;;15.49;26.17;100331.44;5057582;28;19917;-88
2021/03/22 07:38:24;;;;;;;;;;;;;;;16.20;25.36;100333.00;5060960;28;19917;-88
2021/03/22 07:41:27;;;;;;;;;;;;;;;16.85;24.54;100339.34;5062935;28;19916;-87
2021/03/22 07:44:35;;;;;;;;;;;;;;;16.99;24.25;100341.50;5061610;28;20367;-87
2021/03/22 07:47:22;;;;;;;;;;;;;;;18.99;21.83;100347.25;5054541;28;19917;-87
2021/03/22 07:50:10;;;;;;;;;;;;;;;18.11;23.27;100352.59;5063179;28;19921;-87
2021/03/22 07:52:57;;;;;;;;;;;;;;;19.30;21.45;100354.16;5061968;28;19921;-87
2021/03/22 07:55:43;;;;;;;;;;;;;;;19.57;21.07;100357.56;5057933;28;19916;-87
2021/03/22 07:58:46;;;;;;;;;;;;;;;20.61;19.97;100359.59;5056396;28;19917;-87
2021/03/22 08:01:49;;;;;;;;;;;;;;;18.26;22.60;100340.59;5060885;28;20303;-86
2021/03/22 08:04:37;;;;;;;;;;;;;;;17.41;23.86;100349.66;5058173;28;19920;-83
2021/03/22 08:07:25;;;;;;;;;;;;;;;17.16;25.03;100357.50;5062150;28;20295;-85
2021/03/22 08:10:21;;;;;;;;;;;;;;;16.58;26.09;100359.59;5060933;28;19921;-84
2021/03/22 08:13:09;;;;;;;;;;;;;;;15.57;27.36;100359.84;5058433;28;19917;-82
2021/03/22 08:15:54;;;;;;;;;;;;;;;12.34;33.38;100365.94;5090964;28;19917;-84
2021/03/22 08:18:38;;;;;;;;;;;;;;;13.91;30.96;100369.94;5088389;28;19916;-84
2021/03/22 08:21:23;;;;;;;;;;;;;;;13.04;32.24;100372.25;5059012;28;19921;-84
2021/03/22 08:24:15;;;;;;;;;;;;;;;13.59;31.19;100366.22;5061862;28;19917;-85
2021/03/22 08:27:05;;;;;;;;;;;;;;;13.33;32.25;100369.31;5059766;28;19917;-84
2021/03/22 08:29:54;;;;;;;;;;;;;;;15.65;28.38;100369.81;5062188;28;19921;-85
2021/03/22 08:32:56;;;;;;;;;;;;;;;17.26;25.59;100367.06;5058957;28;20379;-84
2021/03/22 08:35:40;;;;;;;;;;;;;;;17.25;25.50;100365.50;5056895;28;20371;-84
2021/03/22 08:38:31;;;;;;;;;;;;;;;19.30;23.06;100379.00;5076239;22;19924;-81
2021/03/22 08:41:31;;;;;;;;;;;;;;;21.13;20.34;100369.91;5039583;28;19923;-80
2021/03/22 08:44:18;;;;;;;;;;;;;;;23.42;17.69;100383.22;5049364;28;19916;-80
2021/03/22 08:47:12;;;;;;;;;;;;;;;21.78;19.06;100388.09;5073106;28;19920;-78
2021/03/22 08:49:59;;;;;;;;;;;;;;;22.21;19.03;100391.53;5076741;28;19916;-80
2021/03/22 08:52:47;;;;;;;;;;;;;;;20.80;20.40;100381.34;5079464;28;19917;-79
2021/03/22 08:55:38;;;;;;;;;;;;;;;20.02;21.58;100386.56;5078295;28;19939;-80
2021/03/22 08:58:26;;;;;;;;;;;;;;;19.61;22.30;100389.50;5054757;28;19917;-82
2021/03/22 09:01:25;;;;;;;;;;;;;;;19.94;21.99;100394.03;5054128;28;19935;-81
2021/03/22 09:04:19;;;;;;;;;;;;;;;19.38;23.00;100385.38;5059398;28;19921;-79
2021/03/22 09:07:09;;;;;;;;;;;;;;;19.35;22.92;100386.13;5055095;28;19921;-79
2021/03/22 09:10:14;;;;;;;;;;;;;;;18.20;24.72;100393.59;5059023;28;19917;-80
2021/03/22 09:13:17;;;;;;;;;;;;;;;17.59;25.22;100389.22;5083814;28;20392;-80
2021/03/22 09:16:02;;;;;;;;;;;;;;;16.48;27.27;100395.88;5053532;28;19916;-82
2021/03/22 09:19:02;;;;;;;;;;;;;;;16.56;27.46;100400.31;5056925;28;19916;-81
2021/03/22 09:22:10;;;;;;;;;;;;;;;16.80;26.70;100400.06;5057368;28;20377;-83
2021/03/22 09:24:55;;;;;;;;;;;;;;;16.10;28.00;100391.97;5056686;28;20313;-82
2021/03/22 09:27:39;;;;;;;;;;;;;;;17.28;26.38;100403.22;5058818;28;19917;-84
2021/03/22 09:30:31;;;;;;;;;;;;;;;15.73;29.01;100399.78;5058085;28;19916;-80
2021/03/22 09:33:36;;;;;;;;;;;;;;;14.87;29.23;100398.84;5064340;28;19917;-81
2021/03/22 09:36:36;;;;;;;;;;;;;;;15.58;29.16;100391.59;5060730;28;20369;-81
2021/03/22 09:39:21;;;;;;;;;;;;;;;15.42;28.20;100394.31;5063286;28;19916;-83
2021/03/22 09:42:08;;;;;;;;;;;;;;;15.63;27.59;100394.06;5062562;28;19917;-80
2021/03/22 09:44:57;;;;;;;;;;;;;;;14.92;28.36;100381.34;5055053;28;19917;-81
2021/03/22 09:47:41;;;;;;;;;;;;;;;15.29;27.71;100390.88;5060706;28;19921;-82
2021/03/22 09:50:33;;;;;;;;;;;;;;;15.53;28.31;100395.41;5060229;28;19916;-83
2021/03/22 09:53:31;;;;;;;;;;;;;;;15.53;27.70;100391.88;5057676;28;19917;-80
2021/03/22 09:56:30;;;;;;;;;;;;;;;15.74;27.29;100386.88;5060587;28;19916;-81
2021/03/22 09:59:30;;;;;;;;;;;;;;;15.26;27.07;100382.59;5060807;28;20301;-82
2021/03/22 10:02:27;;;;;;;;;;;;;;;15.44;26.06;100385.75;5063335;28;19921;-80
2021/03/22 10:05:24;;;;;;;;;;;;;;;15.45;27.63;100381.84;5060783;28;19921;-81
2021/03/22 10:08:12;;;;;;;;;;;;;;;15.34;26.62;100378.84;5059458;28;20393;-79
2021/03/22 10:10:58;;;;;;;;;;;;;;;15.11;26.62;100381.44;5063408;28;19917;-80
2021/03/22 10:13:45;;;;;;;;;;;;;;;15.45;25.38;100385.38;5059805;28;19917;-82
2021/03/22 10:16:35;;;;;;;;;;;;;;;15.21;24.93;100386.38;5064721;28;19917;-82
2021/03/22 10:19:21;;;;;;;;;;;;;;;15.35;25.04;100378.50;5061876;28;19917;-81
2021/03/22 10:22:14;;;;;;;;;;;;;;;15.40;24.60;100380.97;5058655;28;19917;-80
2021/03/22 10:25:10;;;;;;;;;;;;;;;14.89;25.10;100368.34;5055412;28;19921;-81
2021/03/22 10:28:00;;;;;;;;;;;;;;;15.59;24.20;100372.06;5069575;28;19928;-81
2021/03/22 10:30:54;;;;;;;;;;;;;;;15.22;24.49;100360.59;5077453;28;19920;-80
2021/03/22 10:33:45;;;;;;;;;;;;;;;15.73;25.12;100369.63;5080911;28;20400;-82
2021/03/22 10:36:37;;;;;;;;;;;;;;;20.27;18.94;100378.41;5079464;28;19917;-81
2021/03/22 10:39:37;;;;;;;;;;;;;;;25.61;13.47;100389.91;5076738;28;19917;-80
2021/03/22 10:42:23;;;;;;;;;;;;;;;28.41;11.98;100392.50;5079305;28;20384;-82
2021/03/22 10:45:16;;;;;;;;;;;;;;;29.43;10.35;100405.31;5072457;28;19920;-81
2021/03/22 10:48:17;;;;;;;;;;;;;;;31.09;8.60;100403.97;5062232;28;19920;-79
2021/03/22 10:51:04;;;;;;;;;;;;;;;32.76;7.88;100400.25;5080079;28;19916;-79
2021/03/22 10:54:00;;;;;;;;;;;;;;;31.96;8.67;100399.88;5077827;28;19920;-81
2021/03/22 10:56:44;;;;;;;;;;;;;;;31.44;7.56;100413.72;5082057;28;19920;-81
2021/03/22 10:59:31;;;;;;;;;;;;;;;33.69;6.60;100404.91;5059723;28;19916;-82
2021/03/22 11:02:37;;;;;;;;;;;;;;;32.74;7.01;100404.78;5057098;28;19916;-81
2021/03/22 11:05:27;;;;;;;;;;;;;;;33.49;6.67;100400.63;5058460;28;19916;-81
2021/03/22 11:08:26;;;;;;;;;;;;;;;33.58;6.89;100402.59;5057216;28;19920;-79
2021/03/22 11:11:11;;;;;;;;;;;;;;;36.61;4.83;100413.09;5060347;28;19920;-83
2021/03/22 11:13:58;;;;;;;;;;;;;;;33.87;5.88;100401.97;5057470;28;19920;-83
2021/03/22 11:16:43;;;;;;;;;;;;;;;33.96;6.13;100407.50;5055932;28;19924;-82
2021/03/22 11:19:41;;;;;;;;;;;;;;;32.76;6.71;100400.25;5061398;28;19916;-83
2021/03/22 11:22:34;;;;;;;;;;;;;;;32.78;6.71;100400.53;5057346;28;19916;-82
2021/03/22 11:25:34;;;;;;;;;;;;;;;33.73;6.16;100386.53;5056838;28;19917;-85
2021/03/22 11:28:20;;;;;;;;;;;;;;;32.09;6.95;100378.78;5040941;28;19921;-82
2021/03/22 11:31:07;;;;;;;;;;;;;;;33.34;6.87;100373.66;5054357;28;19916;-83
2021/03/22 11:34:21;;;;;;;;;;;;;;;32.94;6.40;100374.81;5046685;28;19920;-81
2021/03/22 11:37:12;;;;;;;;;;;;;;;33.72;6.18;100370.13;5042081;28;19921;-81
2021/03/22 11:40:06;;;;;;;;;;;;;;;33.17;6.37;100372.53;5046648;28;19924;-82
2021/03/22 11:42:56;;;;;;;;;;;;;;;31.43;6.77;100370.03;5043735;28;19916;-82
2021/03/22 11:45:44;;;;;;;;;;;;;;;30.89;7.16;100373.44;5049572;28;19920;-82
2021/03/22 11:48:31;;;;;;;;;;;;;;;32.89;6.54;100372.63;5054383;28;19920;-84
2021/03/22 11:51:16;;;;;;;;;;;;;;;33.25;5.89;100368.06;5048937;28;20317;-82
2021/03/22 11:54:06;;;;;;;;;;;;;;;33.37;7.11;100361.44;5053877;28;20482;-86
2021/03/22 11:56:59;;;;;;;;;;;;;;;33.71;7.49;100368.53;5058869;28;19924;-83
2021/03/22 12:00:06;;;;;;;;;;;;;;;36.56;4.37;100374.16;5057196;28;19917;-82
2021/03/22 12:02:59;;;;;;;;;;;;;;;35.22;5.02;100360.56;5053560;28;19939;-84
2021/03/22 12:05:45;;;;;;;;;;;;;;;34.72;5.99;100372.69;5058830;28;19916;-84
2021/03/22 12:08:34;;;;;;;;;;;;;;;33.74;6.04;100367.56;5056446;28;19916;-86
2021/03/22 12:11:23;;;;;;;;;;;;;;;33.74;6.37;100359.09;5060025;28;19920;-87
2021/03/22 12:14:08;;;;;;;;;;;;;;;31.64;6.85;100350.69;5063139;28;20300;-85
2021/03/22 12:17:00;;;;;;;;;;;;;;;30.67;7.65;100355.13;5060275;28;19921;-86
2021/03/22 12:19:46;;;;;;;;;;;;;;;32.58;6.54;100341.13;5061872;28;19921;-82
2021/03/22 12:22:33;;;;;;;;;;;;;;;32.86;6.83;100336.97;5061563;28;19916;-83
2021/03/22 12:25:20;;;;;;;;;;;;;;;32.80;6.91;100330.44;5056906;28;19916;-86
2021/03/22 12:28:05;;;;;;;;;;;;;;;31.73;6.79;100336.63;5058885;28;19917;-84
2021/03/22 12:30:49;;;;;;;;;;;;;;;33.10;7.15;100331.34;5058097;28;19917;-85
2021/03/22 12:33:34;;;;;;;;;;;;;;;32.98;6.19;100323.91;5055830;28;19917;-84
2021/03/22 12:36:19;;;;;;;;;;;;;;;34.58;5.34;100325.47;5054914;28;19924;-84
2021/03/22 12:39:30;;;;;;;;;;;;;;;32.85;6.83;100332.59;5055165;28;19917;-84
2021/03/22 12:42:17;;;;;;;;;;;;;;;32.65;6.09;100327.53;5054102;28;20189;-84
2021/03/22 12:45:03;;;;;;;;;;;;;;;32.32;6.87;100311.81;5058926;28;20297;-84
2021/03/22 12:47:50;;;;;;;;;;;;;;;32.02;6.97;100311.56;5057297;28;19917;-85
2021/03/22 12:50:39;;;;;;;;;;;;;;;30.03;8.51;100309.84;5054951;28;19921;-83
2021/03/22 12:53:25;;;;;;;;;;;;;;;30.35;7.76;100315.03;5058704;28;19917;-84
2021/03/22 12:56:11;;;;;;;;;;;;;;;32.14;6.98;100313.47;5056934;28;19925;-84
2021/03/22 12:58:56;;;;;;;;;;;;;;;31.76;7.93;100321.63;5057278;28;20725;-84
2021/03/22 13:01:41;;;;;;;;;;;;;;;30.77;7.91;100309.00;5045999;28;19921;-82
2021/03/22 13:04:26;;;;;;;;;;;;;;;29.92;7.89;100296.25;5052615;28;19916;-85
2021/03/22 13:07:12;;;;;;;;;;;;;;;30.33;7.92;100303.47;5052823;28;20312;-82
2021/03/22 13:09:57;;;;;;;;;;;;;;;30.55;7.30;100303.44;5056230;28;20169;-80
2021/03/22 13:12:41;;;;;;;;;;;;;;;29.65;8.37;100294.03;5056540;28;19921;-82
2021/03/22 13:15:37;;;;;;;;;;;;;;;28.99;9.09;100288.75;5055522;28;19920;-82
2021/03/22 13:18:24;;;;;;;;;;;;;;;27.24;10.14;100284.72;5056723;28;19920;-83
2021/03/22 13:21:08;;;;;;;;;;;;;;;27.70;9.49;100282.69;5056441;28;19921;-80
2021/03/22 13:23:53;;;;;;;;;;;;;;;28.60;9.76;100287.22;5046096;28;19916;-80
2021/03/22 13:26:38;;;;;;;;;;;;;;;27.86;10.12;100285.44;5048055;28;19920;-80
2021/03/22 13:29:23;;;;;;;;;;;;;;;27.55;9.88;100276.72;5054024;28;19917;-82
2021/03/22 13:32:09;;;;;;;;;;;;;;;28.36;9.32;100278.34;5053001;28;19916;-81
2021/03/22 13:34:53;;;;;;;;;;;;;;;28.84;9.47;100275.22;5044037;28;19921;-81
2021/03/22 13:37:38;;;;;;;;;;;;;;;28.53;9.83;100267.84;5036344;28;19921;-82
2021/03/22 13:40:23;;;;;;;;;;;;;;;26.75;11.64;100275.59;5054751;28;20405;-83
2021/03/22 13:43:08;;;;;;;;;;;;;;;26.78;10.11;100269.13;5059050;28;20289;-80
2021/03/22 13:45:54;;;;;;;;;;;;;;;26.82;10.28;100274.63;5055822;28;20373;-80
2021/03/22 13:48:39;;;;;;;;;;;;;;;25.86;10.64;100267.66;5052980;28;19917;-79
2021/03/22 13:51:25;;;;;;;;;;;;;;;26.04;10.35;100259.72;5037228;28;19921;-80
2021/03/22 13:54:16;;;;;;;;;;;;;;;25.78;10.46;100269.81;5058656;28;19917;-80
2021/03/22 13:57:01;;;;;;;;;;;;;;;26.57;10.06;100258.50;5088198;28;19925;-80
2021/03/22 13:59:46;;;;;;;;;;;;;;;26.06;10.33;100257.25;5057433;28;20468;-82
2021/03/22 14:02:30;;;;;;;;;;;;;;;25.36;10.89;100251.13;5035406;28;19918;-80
2021/03/22 14:05:18;;;;;;;;;;;;;;;24.14;12.04;100242.38;5046305;28;19917;-80
2021/03/22 14:08:03;;;;;;;;;;;;;;;24.58;11.16;100244.91;5032401;28;19917;-80
2021/03/22 14:10:48;;;;;;;;;;;;;;;24.48;11.96;100248.63;5035177;28;20297;-79
2021/03/22 14:13:33;;;;;;;;;;;;;;;24.03;12.33;100242.53;5031050;28;20296;-80
2021/03/22 14:16:17;;;;;;;;;;;;;;;22.74;13.30;100240.81;5032478;28;19925;-79
2021/03/22 14:19:03;;;;;;;;;;;;;;;23.36;12.38;100248.91;5035652;28;19917;-80
2021/03/22 14:21:49;;;;;;;;;;;;;;;22.73;13.26;100242.78;5057514;28;19924;-80
2021/03/22 14:24:33;;;;;;;;;;;;;;;22.00;13.21;100240.09;5057651;28;19917;-79
2021/03/22 14:27:19;;;;;;;;;;;;;;;20.07;15.03;100239.91;5062746;28;19916;-80
2021/03/22 14:30:06;;;;;;;;;;;;;;;19.23;15.92;100244.66;5077014;28;19924;-81
2021/03/22 14:32:51;;;;;;;;;;;;;;;18.40;16.71;100243.59;5070834;28;19917;-80